createdAt,value
2022-10-17T00:01:24.487Z,101398.44
2022-10-17T00:04:26.844Z,101401.34
2022-10-17T00:07:30.820Z,101410.22
2022-10-17T00:10:33.421Z,101409.81
2022-10-17T00:13:36.226Z,101410.66
2022-10-17T00:16:38.558Z,101411.25
2022-10-17T00:19:40.975Z,101405.09
2022-10-17T00:22:43.321Z,101416.00
2022-10-17T00:25:45.708Z,101420.94
2022-10-17T00:28:49.430Z,101405.31
2022-10-17T00:31:56.073Z,101418.50
2022-10-17T00:34:58.790Z,101409.81
2022-10-17T00:38:01.059Z,101400.38
2022-10-17T00:41:04.168Z,101404.31
2022-10-17T00:44:27.791Z,101394.25
2022-10-17T00:47:31.699Z,101405.53
2022-10-17T00:50:34.925Z,101416.25
2022-10-17T00:53:39.437Z,101398.78
2022-10-17T00:56:41.970Z,101396.31
2022-10-17T00:59:47.749Z,101398.78
2022-10-17T01:02:50.210Z,101386.22
2022-10-17T01:05:52.745Z,101406.34
2022-10-17T01:08:55.330Z,101397.13
2022-10-17T01:12:16.517Z,101413.38
2022-10-17T01:15:37.486Z,101407.41
2022-10-17T01:18:46.269Z,101404.97
2022-10-17T01:22:14.413Z,101408.25
2022-10-17T01:25:36.294Z,101403.09
2022-10-17T01:29:26.310Z,101409.88
2022-10-17T01:32:37.362Z,101404.53
2022-10-17T01:35:45.905Z,101411.13
2022-10-17T01:38:53.901Z,101402.88
2022-10-17T01:42:04.940Z,101409.28
2022-10-17T01:45:12.800Z,101414.41
2022-10-17T01:48:18.755Z,101411.53
2022-10-17T01:51:26.976Z,101409.47
2022-10-17T01:54:55.837Z,101406.81
2022-10-17T01:58:05.721Z,101407.00
2022-10-17T02:01:09.349Z,101409.88
2022-10-17T02:04:14.039Z,101409.47
2022-10-17T02:07:18.612Z,101415.66
2022-10-17T02:10:39.788Z,101414.78
2022-10-17T02:14:32.959Z,101417.28
2022-10-17T02:17:49.278Z,101416.03
2022-10-17T02:21:11.702Z,101409.88
2022-10-17T02:24:57.887Z,101419.53
2022-10-17T02:28:06.401Z,101420.16
2022-10-17T02:31:26.397Z,101418.31
2022-10-17T02:34:33.828Z,101428.41
2022-10-17T02:37:36.706Z,101429.41
2022-10-17T02:40:40.993Z,101430.84
2022-10-17T02:43:45.595Z,101427.34
2022-10-17T02:46:53.276Z,101427.97
2022-10-17T02:49:58.580Z,101442.19
2022-10-17T02:53:09.577Z,101446.06
2022-10-17T02:56:18.100Z,101442.97
2022-10-17T02:59:22.270Z,101438.47
2022-10-17T03:02:24.868Z,101437.84
2022-10-17T03:05:29.141Z,101446.88
2022-10-17T03:08:31.514Z,101443.59
2022-10-17T03:11:35.656Z,101442.94
2022-10-17T03:14:37.987Z,101439.06
2022-10-17T03:17:40.381Z,101436.56
2022-10-17T03:20:43.966Z,101440.88
2022-10-17T03:23:46.448Z,101441.06
2022-10-17T03:26:50.165Z,101451.75
2022-10-17T03:29:52.478Z,101452.94
2022-10-17T03:32:57.955Z,101469.81
2022-10-17T03:36:00.296Z,101455.22
2022-10-17T03:39:02.728Z,101468.63
2022-10-17T03:42:05.033Z,101470.31
2022-10-17T03:45:07.913Z,101466.63
2022-10-17T03:48:11.115Z,101480.63
2022-10-17T03:51:13.735Z,101481.44
2022-10-17T03:54:21.040Z,101491.94
2022-10-17T03:57:23.549Z,101487.63
2022-10-17T04:00:25.992Z,101483.13
2022-10-17T04:03:32.441Z,101497.91
2022-10-17T04:06:35.493Z,101498.56
2022-10-17T04:09:37.806Z,101483.91
2022-10-17T04:12:49.308Z,101496.47
2022-10-17T04:15:59.730Z,101494.81
2022-10-17T04:19:02.325Z,101499.50
2022-10-17T04:22:09.934Z,101492.03
2022-10-17T04:25:14.694Z,101520.81
2022-10-17T04:28:20.493Z,101520.56
2022-10-17T04:31:22.914Z,101509.25
2022-10-17T04:34:42.857Z,101512.50
2022-10-17T04:37:45.127Z,101514.47
2022-10-17T04:40:52.953Z,101514.69
2022-10-17T04:43:55.430Z,101513.00
2022-10-17T04:46:58.426Z,101524.06
2022-10-17T04:50:01.438Z,101507.44
2022-10-17T04:53:05.464Z,101517.94
2022-10-17T04:56:19.553Z,101530.44
2022-10-17T04:59:21.909Z,101528.34
2022-10-17T05:02:30.962Z,101523.41
2022-10-17T05:05:34.546Z,101541.97
2022-10-17T05:08:38.692Z,101539.47
2022-10-17T05:11:42.544Z,101525.06
2022-10-17T05:14:45.677Z,101533.50
2022-10-17T05:17:48.901Z,101541.97
2022-10-17T05:20:52.234Z,101547.88
2022-10-17T05:23:55.482Z,101555.56
2022-10-17T05:26:58.201Z,101559.69
2022-10-17T05:30:00.557Z,101553.72
2022-10-17T05:33:05.873Z,101563.00
2022-10-17T05:36:08.438Z,101563.00
2022-10-17T05:39:14.111Z,101579.16
2022-10-17T05:42:17.454Z,101574.41
2022-10-17T05:45:21.154Z,101580.84
2022-10-17T05:48:24.173Z,101600.41
2022-10-17T05:51:26.764Z,101585.03
2022-10-17T05:54:31.643Z,101584.78
2022-10-17T05:57:34.021Z,101585.03
2022-10-17T06:00:37.491Z,101593.91
2022-10-17T06:03:40.604Z,101606.09
2022-10-17T06:06:42.934Z,101609.41
2022-10-17T06:12:52.766Z,101615.63
2022-10-17T06:15:56.375Z,101628.41
2022-10-17T06:18:59.234Z,101628.00
2022-10-17T06:22:02.633Z,101631.91
2022-10-17T06:25:05.839Z,101624.31
2022-10-17T06:28:08.248Z,101630.28
2022-10-17T06:31:13.485Z,101643.66
2022-10-17T06:34:16.711Z,101646.94
2022-10-17T06:37:19.650Z,101642.84
2022-10-17T06:40:22.874Z,101647.97
2022-10-17T06:43:28.003Z,101658.81
2022-10-17T06:46:48.876Z,101662.31
2022-10-17T06:49:52.921Z,101667.81
2022-10-17T06:53:07.197Z,101663.94
2022-10-17T06:56:29.812Z,101670.53
2022-10-17T06:59:43.938Z,101656.34
2022-10-17T07:02:51.895Z,101668.06
2022-10-17T07:05:55.495Z,101664.13
2022-10-17T07:08:58.961Z,101658.38
2022-10-17T07:12:12.919Z,101667.75
2022-10-17T07:15:19.458Z,101664.25
2022-10-17T07:18:27.022Z,101662.97
2022-10-17T07:21:38.986Z,101673.41
2022-10-17T07:25:15.237Z,101680.28
2022-10-17T07:28:23.507Z,101673.34
2022-10-17T07:31:27.129Z,101676.94
2022-10-17T07:34:31.392Z,101681.94
2022-10-17T07:37:34.482Z,101681.47
2022-10-17T07:40:37.567Z,101672.50
2022-10-17T07:43:41.824Z,101680.63
2022-10-17T07:46:45.465Z,101678.97
2022-10-17T07:49:47.920Z,101676.53
2022-10-17T07:52:50.662Z,101676.50
2022-10-17T07:55:53.064Z,101681.97
2022-10-17T08:01:58.044Z,101684.66
2022-10-17T08:05:00.359Z,101688.78
2022-10-17T08:08:02.684Z,101694.59
2022-10-17T08:11:07.913Z,101696.75
2022-10-17T08:14:14.041Z,101701.38
2022-10-17T08:17:16.289Z,101700.50
2022-10-17T08:20:18.697Z,101695.69
2022-10-17T08:23:21.078Z,101701.13
2022-10-17T08:26:23.381Z,101704.16
2022-10-17T08:29:25.689Z,101698.81
2022-10-17T08:32:29.790Z,101701.34
2022-10-17T08:35:32.183Z,101706.41
2022-10-17T08:38:36.390Z,101705.38
2022-10-17T08:42:07.195Z,101699.03
2022-10-17T08:45:32.730Z,101694.97
2022-10-17T08:48:42.747Z,101696.59
2022-10-17T08:51:56.429Z,101699.47
2022-10-17T08:54:59.694Z,101692.22
2022-10-17T08:58:02.007Z,101691.66
2022-10-17T09:01:06.900Z,101701.31
2022-10-17T09:04:14.508Z,101697.00
2022-10-17T09:07:27.964Z,101693.41
2022-10-17T09:11:01.861Z,101703.03
2022-10-17T09:14:32.107Z,101695.47
2022-10-17T09:17:53.644Z,101702.59
2022-10-17T09:21:11.250Z,101705.66
2022-10-17T09:24:27.041Z,101688.84
2022-10-17T09:28:06.813Z,101689.47
2022-10-17T09:31:35.713Z,101687.75
2022-10-17T09:34:38.055Z,101688.06
2022-10-17T09:37:41.127Z,101686.75
2022-10-17T09:40:44.682Z,101694.84
2022-10-17T09:43:47.968Z,101695.59
2022-10-17T09:47:11.775Z,101691.41
2022-10-17T09:50:28.368Z,101678.19
2022-10-17T09:53:35.034Z,101681.47
2022-10-17T09:57:06.555Z,101689.13
2022-10-17T10:00:21.642Z,101684.56
2022-10-17T10:03:26.246Z,101682.41
2022-10-17T10:06:28.573Z,101676.13
2022-10-17T10:09:34.799Z,101685.38
2022-10-17T10:12:39.640Z,101678.84
2022-10-17T10:15:47.260Z,101688.91
2022-10-17T10:18:51.045Z,101679.56
2022-10-17T10:21:59.096Z,101684.22
2022-10-17T10:25:08.669Z,101683.47
2022-10-17T10:28:17.722Z,101678.25
2022-10-17T10:31:36.078Z,101673.88
2022-10-17T10:34:49.589Z,101677.16
2022-10-17T10:37:56.989Z,101675.56
2022-10-17T10:41:05.437Z,101672.06
2022-10-17T10:44:14.716Z,101661.47
2022-10-17T10:47:26.925Z,101667.94
2022-10-17T10:50:30.485Z,101659.81
2022-10-17T10:53:53.550Z,101665.25
2022-10-17T10:57:00.948Z,101660.34
2022-10-17T11:00:15.579Z,101650.53
2022-10-17T11:03:24.011Z,101645.34
2022-10-17T11:06:28.862Z,101649.41
2022-10-17T11:09:41.435Z,101639.09
2022-10-17T11:12:46.206Z,101655.91
2022-10-17T11:16:00.657Z,101650.97
2022-10-17T11:19:25.965Z,101636.78
2022-10-17T11:22:32.529Z,101646.63
2022-10-17T11:25:39.088Z,101647.22
2022-10-17T11:28:41.441Z,101639.09
2022-10-17T11:31:48.615Z,101640.50
2022-10-17T11:35:01.132Z,101633.66
2022-10-17T11:38:43.058Z,101624.44
2022-10-17T11:41:48.048Z,101628.75
2022-10-17T11:44:55.501Z,101621.41
2022-10-17T11:48:05.197Z,101622.50
2022-10-17T11:54:39.287Z,101619.50
2022-10-17T11:57:46.694Z,101609.75
2022-10-17T12:01:12.544Z,101613.78
2022-10-17T12:04:56.350Z,101607.25
2022-10-17T12:08:09.258Z,101606.47
2022-10-17T12:11:17.796Z,101603.72
2022-10-17T12:14:42.810Z,101611.34
2022-10-17T12:17:46.676Z,101609.72
2022-10-17T12:20:59.795Z,101598.28
2022-10-17T12:24:02.095Z,101593.91
2022-10-17T12:27:33.770Z,101590.09
2022-10-17T12:30:36.738Z,101583.03
2022-10-17T12:33:48.872Z,101583.63
2022-10-17T12:36:51.248Z,101577.41
2022-10-17T12:40:00.147Z,101578.16
2022-10-17T12:43:15.070Z,101588.53
2022-10-17T12:46:44.853Z,101587.97
2022-10-17T12:49:54.413Z,101579.03
2022-10-17T12:53:04.948Z,101586.66
2022-10-17T12:56:07.575Z,101580.44
2022-10-17T12:59:27.547Z,101585.56
2022-10-17T13:02:30.985Z,101570.91
2022-10-17T13:05:36.706Z,101585.06
2022-10-17T13:08:44.853Z,101567.91
2022-10-17T13:11:49.636Z,101561.91
2022-10-17T13:14:53.205Z,101567.88
2022-10-17T13:17:57.754Z,101567.91
2022-10-17T13:21:01.919Z,101553.22
2022-10-17T13:24:44.191Z,101559.22
2022-10-17T13:27:47.082Z,101551.31
2022-10-17T13:30:49.877Z,101557.56
2022-10-17T13:33:56.687Z,101556.47
2022-10-17T13:37:02.558Z,101570.59
2022-10-17T13:40:17.580Z,101557.78
2022-10-17T13:43:27.477Z,101559.44
2022-10-17T13:46:38.080Z,101557.53
2022-10-17T13:49:42.547Z,101557.53
2022-10-17T13:52:44.858Z,101551.84
2022-10-17T13:56:09.477Z,101557.00
2022-10-17T13:59:26.168Z,101562.41
2022-10-17T14:02:35.410Z,101560.16
2022-10-17T14:06:09.890Z,101556.91
2022-10-17T14:09:22.690Z,101534.53
2022-10-17T14:12:25.928Z,101556.50
2022-10-17T14:15:30.550Z,101552.94
2022-10-17T14:18:36.664Z,101542.50
2022-10-17T14:21:44.435Z,101557.66
2022-10-17T14:24:47.477Z,101540.78
2022-10-17T14:28:04.157Z,101544.53
2022-10-17T14:31:15.554Z,101544.44
2022-10-17T14:34:24.468Z,101542.50
2022-10-17T14:37:47.789Z,101547.59
2022-10-17T14:41:15.298Z,101555.19
2022-10-17T14:44:30.179Z,101547.75
2022-10-17T14:47:43.662Z,101559.16
2022-10-17T14:51:15.525Z,101547.53
2022-10-17T14:54:22.733Z,101549.13
2022-10-17T14:57:34.504Z,101554.50
2022-10-17T15:00:36.770Z,101548.13
2022-10-17T15:03:39.090Z,101537.28
2022-10-17T15:06:41.816Z,101534.56
2022-10-17T15:09:45.142Z,101533.94
2022-10-17T15:12:56.202Z,101540.81
2022-10-17T15:16:01.303Z,101543.44
2022-10-17T15:19:03.530Z,101549.03
2022-10-17T15:22:05.796Z,101539.72
2022-10-17T15:25:08.553Z,101540.00
2022-10-17T15:28:13.236Z,101556.44
2022-10-17T15:31:18.709Z,101556.69
2022-10-17T15:34:20.961Z,101545.50
2022-10-17T15:37:25.070Z,101557.66
2022-10-17T15:40:29.818Z,101561.94
2022-10-17T15:43:32.030Z,101551.03
2022-10-17T15:46:35.351Z,101555.78
2022-10-17T15:49:37.659Z,101564.47
2022-10-17T15:52:41.334Z,101574.38
2022-10-17T15:55:43.622Z,101576.34
2022-10-17T15:58:45.909Z,101571.41
2022-10-17T16:01:50.829Z,101572.34
2022-10-17T16:04:53.572Z,101576.44
2022-10-17T16:07:57.564Z,101580.44
2022-10-17T16:10:59.853Z,101574.16
2022-10-17T16:14:05.590Z,101585.28
2022-10-17T16:17:12.763Z,101591.56
2022-10-17T16:20:15.490Z,101597.78
2022-10-17T16:23:17.910Z,101592.03
2022-10-17T16:26:20.466Z,101584.13
2022-10-17T16:29:22.759Z,101582.66
2022-10-17T16:32:25.107Z,101589.94
2022-10-17T16:35:33.134Z,101606.88
2022-10-17T16:38:38.954Z,101594.47
2022-10-17T16:41:41.274Z,101607.59
2022-10-17T16:44:43.588Z,101591.91
2022-10-17T16:47:46.401Z,101591.81
2022-10-17T16:50:48.675Z,101605.06
2022-10-17T16:53:52.897Z,101612.00
2022-10-17T16:56:57.718Z,101614.56
2022-10-17T17:00:00.092Z,101609.41
2022-10-17T17:03:02.365Z,101616.78
2022-10-17T17:06:06.644Z,101619.50
2022-10-17T17:09:09.465Z,101600.88
2022-10-17T17:12:11.796Z,101612.34
2022-10-17T17:15:14.224Z,101621.50
2022-10-17T17:18:16.511Z,101625.69
2022-10-17T17:21:18.778Z,101617.97
2022-10-17T17:24:21.663Z,101606.59
2022-10-17T17:27:25.194Z,101625.31
2022-10-17T17:30:27.578Z,101618.13
2022-10-17T17:33:30.301Z,101628.78
2022-10-17T17:36:35.073Z,101626.31
2022-10-17T17:39:37.488Z,101616.69
2022-10-17T17:42:39.775Z,101628.50
2022-10-17T17:45:42.105Z,101619.91
2022-10-17T17:48:45.712Z,101630.00
2022-10-17T17:51:48.051Z,101605.66
2022-10-17T17:54:50.342Z,101617.19
2022-10-17T17:57:52.546Z,101616.53
2022-10-17T18:00:54.963Z,101609.72
2022-10-17T18:04:01.567Z,101614.50
2022-10-17T18:07:03.808Z,101626.69
2022-10-17T18:10:06.919Z,101607.72
2022-10-17T18:13:09.235Z,101623.19
2022-10-17T18:16:13.416Z,101624.97
2022-10-17T18:19:15.717Z,101615.56
2022-10-17T18:22:18.035Z,101610.66
2022-10-17T18:25:20.311Z,101605.03
2022-10-17T18:28:23.198Z,101621.09
2022-10-17T18:31:28.941Z,101606.31
2022-10-17T18:34:31.216Z,101618.25
2022-10-17T18:37:33.556Z,101620.22
2022-10-17T18:40:36.034Z,101619.47
2022-10-17T18:43:40.026Z,101613.59
2022-10-17T18:46:42.847Z,101602.41
2022-10-17T18:49:45.252Z,101614.66
2022-10-17T18:52:48.474Z,101625.72
2022-10-17T18:55:51.326Z,101611.19
2022-10-17T18:58:54.043Z,101623.72
2022-10-17T19:01:56.343Z,101618.19
2022-10-17T19:04:58.772Z,101610.59
2022-10-17T19:08:01.029Z,101616.69
2022-10-17T19:11:18.062Z,101612.78
2022-10-17T19:14:20.382Z,101608.31
2022-10-17T19:17:22.617Z,101614.97
2022-10-17T19:20:24.902Z,101626.75
2022-10-17T19:23:27.209Z,101609.66
2022-10-17T19:26:32.348Z,101609.28
2022-10-17T19:29:34.586Z,101614.88
2022-10-17T19:32:37.681Z,101608.75
2022-10-17T19:35:41.379Z,101612.31
2022-10-17T19:38:43.650Z,101612.78
2022-10-17T19:41:47.477Z,101612.13
2022-10-17T19:44:49.757Z,101613.22
2022-10-17T19:47:52.024Z,101608.97
2022-10-17T19:50:54.387Z,101607.00
2022-10-17T19:54:00.372Z,101603.84
2022-10-17T19:57:06.774Z,101600.06
2022-10-17T20:00:12.633Z,101615.50
2022-10-17T20:03:14.891Z,101610.06
2022-10-17T20:06:19.111Z,101606.34
2022-10-17T20:09:21.990Z,101611.22
2022-10-17T20:12:24.321Z,101601.63
2022-10-17T20:15:26.603Z,101606.94
2022-10-17T20:18:29.144Z,101608.59
2022-10-17T20:21:39.510Z,101607.13
2022-10-17T20:24:41.820Z,101607.13
2022-10-17T20:27:44.077Z,101602.94
2022-10-17T20:30:46.542Z,101606.81
2022-10-17T20:33:48.936Z,101604.72
2022-10-17T20:36:51.433Z,101607.66
2022-10-17T20:40:16.604Z,101608.16
2022-10-17T20:43:16.027Z,101608.03
2022-10-17T20:46:34.948Z,101613.53
2022-10-17T20:49:38.464Z,101609.50
2022-10-17T20:52:40.746Z,101607.13
2022-10-17T20:55:43.039Z,101604.44
2022-10-17T20:58:45.315Z,101603.69
2022-10-17T21:01:47.991Z,101609.88
2022-10-17T21:04:50.271Z,101607.25
2022-10-17T21:07:52.561Z,101607.75
2022-10-17T21:10:54.837Z,101611.72
2022-10-17T21:13:59.582Z,101617.59
2022-10-17T21:17:05.067Z,101603.53
2022-10-17T21:20:08.241Z,101609.47
2022-10-17T21:23:10.503Z,101609.53
2022-10-17T21:26:13.043Z,101614.47
2022-10-17T21:29:15.427Z,101608.78
2022-10-17T21:32:31.908Z,101616.31
2022-10-17T21:35:40.502Z,101609.56
2022-10-17T21:38:44.252Z,101613.09
2022-10-17T21:41:46.557Z,101600.75
2022-10-17T21:44:49.560Z,101607.03
2022-10-17T21:48:11.733Z,101609.69
2022-10-17T21:51:16.134Z,101611.41
2022-10-17T21:54:19.768Z,101599.91
2022-10-17T21:57:22.048Z,101610.06
2022-10-17T22:00:24.333Z,101618.91
2022-10-17T22:03:26.615Z,101610.94
2022-10-17T22:06:39.781Z,101610.94
2022-10-17T22:09:43.003Z,101606.63
2022-10-17T22:12:45.248Z,101602.53
2022-10-17T22:15:47.478Z,101606.47
2022-10-17T22:18:50.146Z,101607.72
2022-10-17T22:21:53.219Z,101608.13
2022-10-17T22:24:55.626Z,101600.97
2022-10-17T22:27:57.903Z,101602.59
2022-10-17T22:31:00.502Z,101599.91
2022-10-17T22:34:05.119Z,101591.66
2022-10-17T22:37:07.943Z,101592.09
2022-10-17T22:40:10.797Z,101595.66
2022-10-17T22:43:13.607Z,101593.16
2022-10-17T22:46:17.027Z,101598.72
2022-10-17T22:49:19.263Z,101589.25
2022-10-17T22:52:21.560Z,101594.19
2022-10-17T22:55:23.836Z,101593.38
2022-10-17T22:58:26.998Z,101602.84
2022-10-17T23:01:29.302Z,101614.59
2022-10-17T23:04:31.705Z,101598.94
2022-10-17T23:07:34.281Z,101589.69
2022-10-17T23:10:36.599Z,101601.25
2022-10-17T23:13:40.845Z,101576.53
2022-10-17T23:16:43.167Z,101591.78
2022-10-17T23:19:45.533Z,101579.81
2022-10-17T23:22:47.925Z,101581.06
2022-10-17T23:25:50.607Z,101581.06
2022-10-17T23:28:54.588Z,101574.88
2022-10-17T23:31:56.950Z,101579.81
2022-10-17T23:34:59.262Z,101580.22
2022-10-17T23:38:01.580Z,101570.34
2022-10-17T23:41:04.020Z,101569.56
2022-10-17T23:44:06.806Z,101581.06
2022-10-17T23:47:09.073Z,101572.44
2022-10-17T23:50:11.447Z,101572.44
2022-10-17T23:53:13.780Z,101556.78
2022-10-17T23:56:16.176Z,101565.41
2022-10-17T23:59:18.380Z,101558.44
